sensor_id;sensor_type;location;lat;lon;timestamp;temperature;humidity
20911;DHT22;10615;42.702;23.314;2022-10-16T00:00:43;9.90;99.90
20911;DHT22;10615;42.702;23.314;2022-10-16T00:01:43;9.90;99.90
20911;DHT22;10615;42.702;23.314;2022-10-16T00:02:44;9.90;99.90
20911;DHT22;10615;42.702;23.314;2022-10-16T00:03:46;9.90;99.90
20911;DHT22;10615;42.702;23.314;2022-10-16T00:04:47;9.90;99.90
20911;DHT22;10615;42.702;23.314;2022-10-16T00:05:48;9.90;99.90
20911;DHT22;10615;42.702;23.314;2022-10-16T00:06:48;9.90;99.90
20911;DHT22;10615;42.702;23.314;2022-10-16T00:07:49;9.90;99.90
20911;DHT22;10615;42.702;23.314;2022-10-16T00:08:50;9.90;99.90
20911;DHT22;10615;42.702;23.314;2022-10-16T00:09:51;9.90;99.90
20911;DHT22;10615;42.702;23.314;2022-10-16T00:10:52;9.80;99.90
20911;DHT22;10615;42.702;23.314;2022-10-16T00:11:52;9.80;99.90
20911;DHT22;10615;42.702;23.314;2022-10-16T00:12:53;9.80;99.90
20911;DHT22;10615;42.702;23.314;2022-10-16T00:14:00;9.90;99.90
20911;DHT22;10615;42.702;23.314;2022-10-16T00:15:00;9.90;99.90
20911;DHT22;10615;42.702;23.314;2022-10-16T00:16:01;9.90;99.90
20911;DHT22;10615;42.702;23.314;2022-10-16T00:17:02;9.80;99.90
20911;DHT22;10615;42.702;23.314;2022-10-16T00:18:04;9.80;99.90
20911;DHT22;10615;42.702;23.314;2022-10-16T00:19:05;9.80;99.90
20911;DHT22;10615;42.702;23.314;2022-10-16T00:20:07;9.80;99.90
20911;DHT22;10615;42.702;23.314;2022-10-16T00:21:14;9.80;99.90
20911;DHT22;10615;42.702;23.314;2022-10-16T00:22:15;9.80;99.90
20911;DHT22;10615;42.702;23.314;2022-10-16T00:23:15;9.80;99.90
20911;DHT22;10615;42.702;23.314;2022-10-16T00:24:16;9.80;99.90
20911;DHT22;10615;42.702;23.314;2022-10-16T00:25:17;9.80;99.90
20911;DHT22;10615;42.702;23.314;2022-10-16T00:26:18;9.80;99.90
20911;DHT22;10615;42.702;23.314;2022-10-16T00:27:19;9.80;99.90
20911;DHT22;10615;42.702;23.314;2022-10-16T00:28:20;9.80;99.90
20911;DHT22;10615;42.702;23.314;2022-10-16T00:29:21;9.80;99.90
20911;DHT22;10615;42.702;23.314;2022-10-16T00:30:21;9.80;99.90
20911;DHT22;10615;42.702;23.314;2022-10-16T00:31:24;9.70;99.90
20911;DHT22;10615;42.702;23.314;2022-10-16T00:32:24;9.70;99.90
20911;DHT22;10615;42.702;23.314;2022-10-16T00:33:25;9.70;99.90
20911;DHT22;10615;42.702;23.314;2022-10-16T00:34:26;9.70;99.90
20911;DHT22;10615;42.702;23.314;2022-10-16T00:35:26;9.70;99.90
20911;DHT22;10615;42.702;23.314;2022-10-16T00:36:28;9.70;99.90
20911;DHT22;10615;42.702;23.314;2022-10-16T00:37:29;9.70;99.90
20911;DHT22;10615;42.702;23.314;2022-10-16T00:38:29;9.70;99.90
20911;DHT22;10615;42.702;23.314;2022-10-16T00:39:30;9.60;99.90
20911;DHT22;10615;42.702;23.314;2022-10-16T00:40:31;9.60;99.90
20911;DHT22;10615;42.702;23.314;2022-10-16T00:41:32;9.60;99.90
20911;DHT22;10615;42.702;23.314;2022-10-16T00:42:33;9.60;99.90
20911;DHT22;10615;42.702;23.314;2022-10-16T00:44:01;9.60;99.90
20911;DHT22;10615;42.702;23.314;2022-10-16T00:45:02;9.50;99.90
20911;DHT22;10615;42.702;23.314;2022-10-16T00:46:08;9.50;99.90
20911;DHT22;10615;42.702;23.314;2022-10-16T00:47:15;9.50;99.90
20911;DHT22;10615;42.702;23.314;2022-10-16T00:48:18;9.50;99.90
20911;DHT22;10615;42.702;23.314;2022-10-16T00:49:19;9.50;99.90
20911;DHT22;10615;42.702;23.314;2022-10-16T00:51:35;9.50;99.90
20911;DHT22;10615;42.702;23.314;2022-10-16T00:52:41;9.50;99.90
20911;DHT22;10615;42.702;23.314;2022-10-16T00:53:43;9.50;99.90
20911;DHT22;10615;42.702;23.314;2022-10-16T00:54:46;9.50;99.90
20911;DHT22;10615;42.702;23.314;2022-10-16T00:55:46;9.50;99.90
20911;DHT22;10615;42.702;23.314;2022-10-16T00:56:49;9.40;99.90
20911;DHT22;10615;42.702;23.314;2022-10-16T00:57:51;9.40;99.90
20911;DHT22;10615;42.702;23.314;2022-10-16T00:58:52;9.40;99.90
20911;DHT22;10615;42.702;23.314;2022-10-16T00:59:53;9.50;99.90
20911;DHT22;10615;42.702;23.314;2022-10-16T01:00:54;9.50;99.90
20911;DHT22;10615;42.702;23.314;2022-10-16T01:01:56;9.40;99.90
20911;DHT22;10615;42.702;23.314;2022-10-16T01:02:59;9.40;99.90
20911;DHT22;10615;42.702;23.314;2022-10-16T01:04:00;9.40;99.90
20911;DHT22;10615;42.702;23.314;2022-10-16T01:05:02;9.40;99.90
20911;DHT22;10615;42.702;23.314;2022-10-16T01:08:17;9.40;99.90
20911;DHT22;10615;42.702;23.314;2022-10-16T01:09:47;9.40;99.90
20911;DHT22;10615;42.702;23.314;2022-10-16T01:11:00;9.40;99.90
20911;DHT22;10615;42.702;23.314;2022-10-16T01:13:38;9.30;99.90
20911;DHT22;10615;42.702;23.314;2022-10-16T01:14:47;9.30;99.90
20911;DHT22;10615;42.702;23.314;2022-10-16T01:16:24;9.30;99.90
20911;DHT22;10615;42.702;23.314;2022-10-16T01:19:57;9.30;99.90
20911;DHT22;10615;42.702;23.314;2022-10-16T01:21:02;9.30;99.90
20911;DHT22;10615;42.702;23.314;2022-10-16T01:22:05;9.30;99.90
20911;DHT22;10615;42.702;23.314;2022-10-16T01:23:45;9.30;99.90
20911;DHT22;10615;42.702;23.314;2022-10-16T01:24:50;9.30;99.90
20911;DHT22;10615;42.702;23.314;2022-10-16T01:28:05;9.30;99.90
20911;DHT22;10615;42.702;23.314;2022-10-16T01:29:13;9.30;99.90
20911;DHT22;10615;42.702;23.314;2022-10-16T01:30:31;9.30;99.90
20911;DHT22;10615;42.702;23.314;2022-10-16T01:31:34;9.30;99.90
20911;DHT22;10615;42.702;23.314;2022-10-16T01:33:00;9.30;99.90
20911;DHT22;10615;42.702;23.314;2022-10-16T01:34:15;9.20;99.90
20911;DHT22;10615;42.702;23.314;2022-10-16T01:36:37;9.20;99.90
20911;DHT22;10615;42.702;23.314;2022-10-16T01:37:48;9.20;99.90
20911;DHT22;10615;42.702;23.314;2022-10-16T01:38:54;9.20;99.90
20911;DHT22;10615;42.702;23.314;2022-10-16T01:39:59;9.20;99.90
20911;DHT22;10615;42.702;23.314;2022-10-16T01:41:11;9.20;99.90
20911;DHT22;10615;42.702;23.314;2022-10-16T01:42:24;9.20;99.90
20911;DHT22;10615;42.702;23.314;2022-10-16T01:43:30;9.20;99.90
20911;DHT22;10615;42.702;23.314;2022-10-16T01:44:33;9.20;99.90
20911;DHT22;10615;42.702;23.314;2022-10-16T01:45:37;9.20;99.90
20911;DHT22;10615;42.702;23.314;2022-10-16T01:46:42;9.10;99.90
20911;DHT22;10615;42.702;23.314;2022-10-16T01:47:44;9.20;99.90
20911;DHT22;10615;42.702;23.314;2022-10-16T01:48:46;9.10;99.90
20911;DHT22;10615;42.702;23.314;2022-10-16T01:49:47;9.20;99.90
20911;DHT22;10615;42.702;23.314;2022-10-16T01:51:09;9.20;99.90
20911;DHT22;10615;42.702;23.314;2022-10-16T01:52:17;9.20;99.90
20911;DHT22;10615;42.702;23.314;2022-10-16T01:53:20;9.20;99.90
20911;DHT22;10615;42.702;23.314;2022-10-16T01:54:26;9.20;99.90
20911;DHT22;10615;42.702;23.314;2022-10-16T01:55:32;9.20;99.90
20911;DHT22;10615;42.702;23.314;2022-10-16T01:56:35;9.10;99.90
20911;DHT22;10615;42.702;23.314;2022-10-16T01:57:38;9.20;99.90
20911;DHT22;10615;42.702;23.314;2022-10-16T01:59:01;9.10;99.90
20911;DHT22;10615;42.702;23.314;2022-10-16T02:00:09;9.20;99.90
20911;DHT22;10615;42.702;23.314;2022-10-16T02:01:11;9.10;99.90
20911;DHT22;10615;42.702;23.314;2022-10-16T02:02:15;9.10;99.90
20911;DHT22;10615;42.702;23.314;2022-10-16T02:03:18;9.10;99.90
20911;DHT22;10615;42.702;23.314;2022-10-16T02:04:39;9.10;99.90
20911;DHT22;10615;42.702;23.314;2022-10-16T02:06:48;9.10;99.90
20911;DHT22;10615;42.702;23.314;2022-10-16T02:07:49;9.00;99.90
20911;DHT22;10615;42.702;23.314;2022-10-16T02:08:49;9.00;99.90
20911;DHT22;10615;42.702;23.314;2022-10-16T02:09:50;9.00;99.90
20911;DHT22;10615;42.702;23.314;2022-10-16T02:10:51;9.00;99.90
20911;DHT22;10615;42.702;23.314;2022-10-16T02:11:57;9.00;99.90
20911;DHT22;10615;42.702;23.314;2022-10-16T02:13:06;9.00;99.90
20911;DHT22;10615;42.702;23.314;2022-10-16T02:14:09;9.00;99.90
20911;DHT22;10615;42.702;23.314;2022-10-16T02:15:10;9.00;99.90
20911;DHT22;10615;42.702;23.314;2022-10-16T02:16:11;9.00;99.90
20911;DHT22;10615;42.702;23.314;2022-10-16T02:17:15;9.00;99.90
20911;DHT22;10615;42.702;23.314;2022-10-16T02:18:16;9.00;99.90
20911;DHT22;10615;42.702;23.314;2022-10-16T02:19:17;9.00;99.90
20911;DHT22;10615;42.702;23.314;2022-10-16T02:20:25;9.00;99.90
20911;DHT22;10615;42.702;23.314;2022-10-16T02:21:29;9.00;99.90
20911;DHT22;10615;42.702;23.314;2022-10-16T02:22:42;9.00;99.90
20911;DHT22;10615;42.702;23.314;2022-10-16T02:25:32;8.90;99.90
20911;DHT22;10615;42.702;23.314;2022-10-16T02:26:57;8.90;99.90
20911;DHT22;10615;42.702;23.314;2022-10-16T02:28:14;8.90;99.90
20911;DHT22;10615;42.702;23.314;2022-10-16T02:29:20;8.80;99.90
20911;DHT22;10615;42.702;23.314;2022-10-16T02:32:02;8.80;99.90
20911;DHT22;10615;42.702;23.314;2022-10-16T02:33:07;8.80;99.90
20911;DHT22;10615;42.702;23.314;2022-10-16T02:34:10;8.80;99.90
20911;DHT22;10615;42.702;23.314;2022-10-16T02:35:13;8.80;99.90
20911;DHT22;10615;42.702;23.314;2022-10-16T02:36:15;8.80;99.90
20911;DHT22;10615;42.702;23.314;2022-10-16T02:37:17;8.80;99.90
20911;DHT22;10615;42.702;23.314;2022-10-16T02:38:20;8.80;99.90
20911;DHT22;10615;42.702;23.314;2022-10-16T02:39:21;8.80;99.90
20911;DHT22;10615;42.702;23.314;2022-10-16T02:40:22;8.80;99.90
20911;DHT22;10615;42.702;23.314;2022-10-16T02:41:24;8.70;99.90
20911;DHT22;10615;42.702;23.314;2022-10-16T02:42:32;8.70;99.90
20911;DHT22;10615;42.702;23.314;2022-10-16T02:43:33;8.70;99.90
20911;DHT22;10615;42.702;23.314;2022-10-16T02:44:34;8.70;99.90
20911;DHT22;10615;42.702;23.314;2022-10-16T02:45:35;8.70;99.90
20911;DHT22;10615;42.702;23.314;2022-10-16T02:46:36;8.70;99.90
20911;DHT22;10615;42.702;23.314;2022-10-16T02:47:37;8.70;99.90
20911;DHT22;10615;42.702;23.314;2022-10-16T02:48:37;8.70;99.90
20911;DHT22;10615;42.702;23.314;2022-10-16T02:49:39;8.60;99.90
20911;DHT22;10615;42.702;23.314;2022-10-16T02:50:40;8.60;99.90
20911;DHT22;10615;42.702;23.314;2022-10-16T02:51:41;8.60;99.90
20911;DHT22;10615;42.702;23.314;2022-10-16T02:52:42;8.60;99.90
20911;DHT22;10615;42.702;23.314;2022-10-16T02:53:42;8.60;99.90
20911;DHT22;10615;42.702;23.314;2022-10-16T02:54:43;8.60;99.90
20911;DHT22;10615;42.702;23.314;2022-10-16T02:55:44;8.60;99.90
20911;DHT22;10615;42.702;23.314;2022-10-16T02:56:44;8.60;99.90
20911;DHT22;10615;42.702;23.314;2022-10-16T02:57:45;8.60;99.90
20911;DHT22;10615;42.702;23.314;2022-10-16T02:58:46;8.60;99.90
20911;DHT22;10615;42.702;23.314;2022-10-16T02:59:47;8.60;99.90
20911;DHT22;10615;42.702;23.314;2022-10-16T03:00:47;8.60;99.90
20911;DHT22;10615;42.702;23.314;2022-10-16T03:01:48;8.60;99.90
20911;DHT22;10615;42.702;23.314;2022-10-16T03:02:49;8.60;99.90
20911;DHT22;10615;42.702;23.314;2022-10-16T03:03:49;8.60;99.90
20911;DHT22;10615;42.702;23.314;2022-10-16T03:04:50;8.60;99.90
20911;DHT22;10615;42.702;23.314;2022-10-16T03:05:51;8.50;99.90
20911;DHT22;10615;42.702;23.314;2022-10-16T03:06:51;8.60;99.90
20911;DHT22;10615;42.702;23.314;2022-10-16T03:07:52;8.50;99.90
20911;DHT22;10615;42.702;23.314;2022-10-16T03:08:53;8.50;99.90
20911;DHT22;10615;42.702;23.314;2022-10-16T03:09:53;8.50;99.90
20911;DHT22;10615;42.702;23.314;2022-10-16T03:10:55;8.50;99.90
20911;DHT22;10615;42.702;23.314;2022-10-16T03:11:56;8.50;99.90
20911;DHT22;10615;42.702;23.314;2022-10-16T03:12:57;8.50;99.90
20911;DHT22;10615;42.702;23.314;2022-10-16T03:13:57;8.50;99.90
20911;DHT22;10615;42.702;23.314;2022-10-16T03:14:58;8.50;99.90
20911;DHT22;10615;42.702;23.314;2022-10-16T03:15:59;8.50;99.90
20911;DHT22;10615;42.702;23.314;2022-10-16T03:16:59;8.40;99.90
20911;DHT22;10615;42.702;23.314;2022-10-16T03:18:00;8.40;99.90
20911;DHT22;10615;42.702;23.314;2022-10-16T03:19:01;8.40;99.90
20911;DHT22;10615;42.702;23.314;2022-10-16T03:20:02;8.40;99.90
20911;DHT22;10615;42.702;23.314;2022-10-16T03:21:03;8.40;99.90
20911;DHT22;10615;42.702;23.314;2022-10-16T03:22:04;8.40;99.90
20911;DHT22;10615;42.702;23.314;2022-10-16T03:23:04;8.40;99.90
20911;DHT22;10615;42.702;23.314;2022-10-16T03:24:07;8.40;99.90
20911;DHT22;10615;42.702;23.314;2022-10-16T03:25:07;8.40;99.90
20911;DHT22;10615;42.702;23.314;2022-10-16T03:26:08;8.40;99.90
20911;DHT22;10615;42.702;23.314;2022-10-16T03:27:09;8.30;99.90
20911;DHT22;10615;42.702;23.314;2022-10-16T03:28:10;8.30;99.90
20911;DHT22;10615;42.702;23.314;2022-10-16T03:29:11;8.30;99.90
20911;DHT22;10615;42.702;23.314;2022-10-16T03:30:11;8.30;99.90
20911;DHT22;10615;42.702;23.314;2022-10-16T03:31:12;8.30;99.90
20911;DHT22;10615;42.702;23.314;2022-10-16T03:32:13;8.30;99.90
20911;DHT22;10615;42.702;23.314;2022-10-16T03:33:13;8.30;99.90
20911;DHT22;10615;42.702;23.314;2022-10-16T03:34:14;8.30;99.90
20911;DHT22;10615;42.702;23.314;2022-10-16T03:35:15;8.30;99.90
20911;DHT22;10615;42.702;23.314;2022-10-16T03:36:16;8.30;99.90
20911;DHT22;10615;42.702;23.314;2022-10-16T03:37:16;8.30;99.90
20911;DHT22;10615;42.702;23.314;2022-10-16T03:38:17;8.30;99.90
20911;DHT22;10615;42.702;23.314;2022-10-16T03:39:18;8.30;99.90
20911;DHT22;10615;42.702;23.314;2022-10-16T03:40:19;8.30;99.90
20911;DHT22;10615;42.702;23.314;2022-10-16T03:41:19;8.30;99.90
20911;DHT22;10615;42.702;23.314;2022-10-16T03:42:20;8.30;99.90
20911;DHT22;10615;42.702;23.314;2022-10-16T03:43:21;8.30;99.90
20911;DHT22;10615;42.702;23.314;2022-10-16T03:44:21;8.30;99.90
20911;DHT22;10615;42.702;23.314;2022-10-16T03:45:22;8.30;99.90
20911;DHT22;10615;42.702;23.314;2022-10-16T03:46:23;8.30;99.90
20911;DHT22;10615;42.702;23.314;2022-10-16T03:47:23;8.30;99.90
20911;DHT22;10615;42.702;23.314;2022-10-16T03:48:24;8.30;99.90
20911;DHT22;10615;42.702;23.314;2022-10-16T03:49:25;8.30;99.90
20911;DHT22;10615;42.702;23.314;2022-10-16T03:50:25;8.30;99.90
20911;DHT22;10615;42.702;23.314;2022-10-16T03:51:26;8.20;99.90
20911;DHT22;10615;42.702;23.314;2022-10-16T03:52:27;8.30;99.90
20911;DHT22;10615;42.702;23.314;2022-10-16T03:53:27;8.20;99.90
20911;DHT22;10615;42.702;23.314;2022-10-16T03:54:28;8.20;99.90
20911;DHT22;10615;42.702;23.314;2022-10-16T03:55:29;8.30;99.90
20911;DHT22;10615;42.702;23.314;2022-10-16T03:56:29;8.20;99.90
20911;DHT22;10615;42.702;23.314;2022-10-16T03:57:30;8.20;99.90
20911;DHT22;10615;42.702;23.314;2022-10-16T03:58:31;8.20;99.90
20911;DHT22;10615;42.702;23.314;2022-10-16T03:59:31;8.20;99.90
20911;DHT22;10615;42.702;23.314;2022-10-16T04:00:32;8.20;99.90
20911;DHT22;10615;42.702;23.314;2022-10-16T04:01:33;8.20;99.90
20911;DHT22;10615;42.702;23.314;2022-10-16T04:02:33;8.20;99.90
20911;DHT22;10615;42.702;23.314;2022-10-16T04:03:34;8.20;99.90
20911;DHT22;10615;42.702;23.314;2022-10-16T04:04:35;8.20;99.90
20911;DHT22;10615;42.702;23.314;2022-10-16T04:05:35;8.20;99.90
20911;DHT22;10615;42.702;23.314;2022-10-16T04:06:36;8.20;99.90
20911;DHT22;10615;42.702;23.314;2022-10-16T04:07:37;8.20;99.90
20911;DHT22;10615;42.702;23.314;2022-10-16T04:08:38;8.20;99.90
20911;DHT22;10615;42.702;23.314;2022-10-16T04:09:39;8.20;99.90
20911;DHT22;10615;42.702;23.314;2022-10-16T04:10:42;8.20;99.90
20911;DHT22;10615;42.702;23.314;2022-10-16T04:11:43;8.20;99.90
20911;DHT22;10615;42.702;23.314;2022-10-16T04:12:44;8.20;99.90
20911;DHT22;10615;42.702;23.314;2022-10-16T04:13:44;8.20;99.90
20911;DHT22;10615;42.702;23.314;2022-10-16T04:14:45;8.20;99.90
20911;DHT22;10615;42.702;23.314;2022-10-16T04:15:46;8.20;99.90
20911;DHT22;10615;42.702;23.314;2022-10-16T04:16:47;8.20;99.90
20911;DHT22;10615;42.702;23.314;2022-10-16T04:17:47;8.20;99.90
20911;DHT22;10615;42.702;23.314;2022-10-16T04:18:48;8.10;99.90
20911;DHT22;10615;42.702;23.314;2022-10-16T04:19:48;8.10;99.90
20911;DHT22;10615;42.702;23.314;2022-10-16T04:20:49;8.20;99.90
20911;DHT22;10615;42.702;23.314;2022-10-16T04:21:50;8.10;99.90
20911;DHT22;10615;42.702;23.314;2022-10-16T04:22:50;8.20;99.90
20911;DHT22;10615;42.702;23.314;2022-10-16T04:23:51;8.20;99.90
20911;DHT22;10615;42.702;23.314;2022-10-16T04:24:52;8.10;99.90
20911;DHT22;10615;42.702;23.314;2022-10-16T04:25:52;8.10;99.90
20911;DHT22;10615;42.702;23.314;2022-10-16T04:26:53;8.10;99.90
20911;DHT22;10615;42.702;23.314;2022-10-16T04:27:55;8.10;99.90
20911;DHT22;10615;42.702;23.314;2022-10-16T04:28:55;8.10;99.90
20911;DHT22;10615;42.702;23.314;2022-10-16T04:29:58;8.10;99.90
20911;DHT22;10615;42.702;23.314;2022-10-16T04:30:59;8.10;99.90
20911;DHT22;10615;42.702;23.314;2022-10-16T04:32:00;8.10;99.90
20911;DHT22;10615;42.702;23.314;2022-10-16T04:33:00;8.10;99.90
20911;DHT22;10615;42.702;23.314;2022-10-16T04:34:01;8.20;99.90
20911;DHT22;10615;42.702;23.314;2022-10-16T04:35:02;8.10;99.90
20911;DHT22;10615;42.702;23.314;2022-10-16T04:36:03;8.10;99.90
20911;DHT22;10615;42.702;23.314;2022-10-16T04:37:04;8.20;99.90
20911;DHT22;10615;42.702;23.314;2022-10-16T04:38:05;8.20;99.90
20911;DHT22;10615;42.702;23.314;2022-10-16T04:39:06;8.20;99.90
20911;DHT22;10615;42.702;23.314;2022-10-16T04:40:07;8.20;99.90
20911;DHT22;10615;42.702;23.314;2022-10-16T04:41:07;8.20;99.90
20911;DHT22;10615;42.702;23.314;2022-10-16T04:42:08;8.20;99.90
20911;DHT22;10615;42.702;23.314;2022-10-16T04:43:09;8.20;99.90
20911;DHT22;10615;42.702;23.314;2022-10-16T04:44:11;8.20;99.90
20911;DHT22;10615;42.702;23.314;2022-10-16T04:45:11;8.20;99.90
20911;DHT22;10615;42.702;23.314;2022-10-16T04:46:12;8.20;99.90
20911;DHT22;10615;42.702;23.314;2022-10-16T04:47:13;8.20;99.90
20911;DHT22;10615;42.702;23.314;2022-10-16T04:48:14;8.20;99.90
20911;DHT22;10615;42.702;23.314;2022-10-16T04:49:14;8.20;99.90
20911;DHT22;10615;42.702;23.314;2022-10-16T04:50:15;8.20;99.90
20911;DHT22;10615;42.702;23.314;2022-10-16T04:51:16;8.20;99.90
20911;DHT22;10615;42.702;23.314;2022-10-16T04:52:17;8.30;99.90
20911;DHT22;10615;42.702;23.314;2022-10-16T04:53:19;8.30;99.90
20911;DHT22;10615;42.702;23.314;2022-10-16T04:54:20;8.30;99.90
20911;DHT22;10615;42.702;23.314;2022-10-16T04:55:21;8.50;99.90
20911;DHT22;10615;42.702;23.314;2022-10-16T04:56:21;8.80;99.90
20911;DHT22;10615;42.702;23.314;2022-10-16T04:57:23;9.10;99.90
20911;DHT22;10615;42.702;23.314;2022-10-16T04:58:24;9.50;99.90
20911;DHT22;10615;42.702;23.314;2022-10-16T04:59:24;9.90;99.90
20911;DHT22;10615;42.702;23.314;2022-10-16T05:00:25;10.30;99.90
20911;DHT22;10615;42.702;23.314;2022-10-16T05:01:26;10.80;99.90
20911;DHT22;10615;42.702;23.314;2022-10-16T05:02:26;11.20;99.90
20911;DHT22;10615;42.702;23.314;2022-10-16T05:03:27;11.60;99.00
20911;DHT22;10615;42.702;23.314;2022-10-16T05:04:28;12.00;96.90
20911;DHT22;10615;42.702;23.314;2022-10-16T05:05:28;12.40;95.00
20911;DHT22;10615;42.702;23.314;2022-10-16T05:06:29;12.70;93.30
20911;DHT22;10615;42.702;23.314;2022-10-16T05:07:30;13.10;91.90
20911;DHT22;10615;42.702;23.314;2022-10-16T05:08:30;13.50;90.40
20911;DHT22;10615;42.702;23.314;2022-10-16T05:09:31;13.90;88.70
20911;DHT22;10615;42.702;23.314;2022-10-16T05:10:32;14.30;85.90
20911;DHT22;10615;42.702;23.314;2022-10-16T05:11:32;14.60;83.80
20911;DHT22;10615;42.702;23.314;2022-10-16T05:12:33;15.00;81.60
20911;DHT22;10615;42.702;23.314;2022-10-16T05:13:34;15.40;79.80
20911;DHT22;10615;42.702;23.314;2022-10-16T05:14:35;15.70;77.90
20911;DHT22;10615;42.702;23.314;2022-10-16T05:15:36;16.00;76.10
20911;DHT22;10615;42.702;23.314;2022-10-16T05:16:36;16.30;74.40
20911;DHT22;10615;42.702;23.314;2022-10-16T05:17:37;16.60;72.80
20911;DHT22;10615;42.702;23.314;2022-10-16T05:18:38;17.00;71.60
20911;DHT22;10615;42.702;23.314;2022-10-16T05:19:38;17.30;70.20
20911;DHT22;10615;42.702;23.314;2022-10-16T05:20:39;17.70;68.80
20911;DHT22;10615;42.702;23.314;2022-10-16T05:21:40;18.00;67.20
20911;DHT22;10615;42.702;23.314;2022-10-16T05:22:40;18.40;65.70
20911;DHT22;10615;42.702;23.314;2022-10-16T05:23:41;18.60;64.20
20911;DHT22;10615;42.702;23.314;2022-10-16T05:24:42;18.80;63.00
20911;DHT22;10615;42.702;23.314;2022-10-16T05:25:43;19.10;61.80
20911;DHT22;10615;42.702;23.314;2022-10-16T05:26:43;19.40;60.40
20911;DHT22;10615;42.702;23.314;2022-10-16T05:27:47;19.70;59.30
20911;DHT22;10615;42.702;23.314;2022-10-16T05:28:49;20.10;58.30
20911;DHT22;10615;42.702;23.314;2022-10-16T05:29:50;20.40;57.30
20911;DHT22;10615;42.702;23.314;2022-10-16T05:30:51;20.70;56.40
20911;DHT22;10615;42.702;23.314;2022-10-16T05:31:52;20.90;55.60
20911;DHT22;10615;42.702;23.314;2022-10-16T05:32:53;21.10;54.60
20911;DHT22;10615;42.702;23.314;2022-10-16T05:34:01;21.20;54.10
20911;DHT22;10615;42.702;23.314;2022-10-16T05:35:02;21.30;53.60
20911;DHT22;10615;42.702;23.314;2022-10-16T05:36:07;21.50;53.40
20911;DHT22;10615;42.702;23.314;2022-10-16T05:37:09;21.80;52.90
20911;DHT22;10615;42.702;23.314;2022-10-16T05:38:11;22.20;52.10
20911;DHT22;10615;42.702;23.314;2022-10-16T05:39:14;22.40;51.30
20911;DHT22;10615;42.702;23.314;2022-10-16T05:40:15;22.70;50.50
20911;DHT22;10615;42.702;23.314;2022-10-16T05:41:17;23.00;50.00
20911;DHT22;10615;42.702;23.314;2022-10-16T05:42:21;23.40;49.40
20911;DHT22;10615;42.702;23.314;2022-10-16T05:43:22;23.70;48.50
20911;DHT22;10615;42.702;23.314;2022-10-16T05:44:23;24.10;47.70
20911;DHT22;10615;42.702;23.314;2022-10-16T05:45:24;24.40;47.00
20911;DHT22;10615;42.702;23.314;2022-10-16T05:46:24;24.70;46.10
20911;DHT22;10615;42.702;23.314;2022-10-16T05:47:25;25.00;45.30
20911;DHT22;10615;42.702;23.314;2022-10-16T05:48:26;25.20;44.70
20911;DHT22;10615;42.702;23.314;2022-10-16T05:49:27;25.40;44.60
20911;DHT22;10615;42.702;23.314;2022-10-16T05:50:28;25.60;44.10
20911;DHT22;10615;42.702;23.314;2022-10-16T05:51:28;25.70;43.80
20911;DHT22;10615;42.702;23.314;2022-10-16T05:52:29;25.90;43.70
20911;DHT22;10615;42.702;23.314;2022-10-16T05:53:31;26.10;43.20
20911;DHT22;10615;42.702;23.314;2022-10-16T05:54:32;26.30;42.90
20911;DHT22;10615;42.702;23.314;2022-10-16T05:55:33;26.50;42.40
20911;DHT22;10615;42.702;23.314;2022-10-16T05:56:34;26.70;41.90
20911;DHT22;10615;42.702;23.314;2022-10-16T05:57:34;26.90;41.30
20911;DHT22;10615;42.702;23.314;2022-10-16T05:58:37;27.10;40.80
20911;DHT22;10615;42.702;23.314;2022-10-16T05:59:38;27.30;40.20
20911;DHT22;10615;42.702;23.314;2022-10-16T06:00:38;27.50;39.70
20911;DHT22;10615;42.702;23.314;2022-10-16T06:01:39;27.70;39.30
20911;DHT22;10615;42.702;23.314;2022-10-16T06:02:40;27.80;38.90
20911;DHT22;10615;42.702;23.314;2022-10-16T06:03:41;28.00;38.50
20911;DHT22;10615;42.702;23.314;2022-10-16T06:04:42;28.20;38.20
20911;DHT22;10615;42.702;23.314;2022-10-16T06:05:42;28.30;37.60
20911;DHT22;10615;42.702;23.314;2022-10-16T06:06:43;28.30;37.30
20911;DHT22;10615;42.702;23.314;2022-10-16T06:07:44;28.40;37.20
20911;DHT22;10615;42.702;23.314;2022-10-16T06:08:45;28.50;37.00
20911;DHT22;10615;42.702;23.314;2022-10-16T06:09:50;28.80;36.80
20911;DHT22;10615;42.702;23.314;2022-10-16T06:11:04;29.00;36.40
20911;DHT22;10615;42.702;23.314;2022-10-16T06:12:05;29.10;36.00
20911;DHT22;10615;42.702;23.314;2022-10-16T06:13:06;29.20;35.90
20911;DHT22;10615;42.702;23.314;2022-10-16T06:14:08;29.50;35.70
20911;DHT22;10615;42.702;23.314;2022-10-16T06:15:09;29.50;35.30
20911;DHT22;10615;42.702;23.314;2022-10-16T06:16:10;29.80;35.20
20911;DHT22;10615;42.702;23.314;2022-10-16T06:17:11;30.10;34.80
20911;DHT22;10615;42.702;23.314;2022-10-16T06:18:11;30.60;34.50
20911;DHT22;10615;42.702;23.314;2022-10-16T06:19:12;31.00;34.00
20911;DHT22;10615;42.702;23.314;2022-10-16T06:20:13;31.40;33.60
20911;DHT22;10615;42.702;23.314;2022-10-16T06:21:18;31.90;33.10
20911;DHT22;10615;42.702;23.314;2022-10-16T06:22:19;32.50;32.40
20911;DHT22;10615;42.702;23.314;2022-10-16T06:23:20;33.00;31.90
20911;DHT22;10615;42.702;23.314;2022-10-16T06:24:21;33.40;31.20
20911;DHT22;10615;42.702;23.314;2022-10-16T06:25:22;33.80;30.90
20911;DHT22;10615;42.702;23.314;2022-10-16T06:26:25;34.30;30.60
20911;DHT22;10615;42.702;23.314;2022-10-16T06:27:25;34.70;30.00
20911;DHT22;10615;42.702;23.314;2022-10-16T06:28:26;34.90;29.50
20911;DHT22;10615;42.702;23.314;2022-10-16T06:29:27;35.20;29.20
20911;DHT22;10615;42.702;23.314;2022-10-16T06:30:28;35.50;28.80
20911;DHT22;10615;42.702;23.314;2022-10-16T06:31:29;35.70;28.40
20911;DHT22;10615;42.702;23.314;2022-10-16T06:32:31;35.80;28.00
20911;DHT22;10615;42.702;23.314;2022-10-16T06:33:32;35.90;27.70
20911;DHT22;10615;42.702;23.314;2022-10-16T06:34:33;36.10;27.70
20911;DHT22;10615;42.702;23.314;2022-10-16T06:35:33;36.30;27.50
20911;DHT22;10615;42.702;23.314;2022-10-16T06:36:34;36.50;27.20
20911;DHT22;10615;42.702;23.314;2022-10-16T06:37:35;36.60;27.00
20911;DHT22;10615;42.702;23.314;2022-10-16T06:38:37;36.50;26.70
20911;DHT22;10615;42.702;23.314;2022-10-16T06:39:37;36.20;26.60
20911;DHT22;10615;42.702;23.314;2022-10-16T06:40:38;35.90;26.80
20911;DHT22;10615;42.702;23.314;2022-10-16T06:41:39;35.50;26.90
20911;DHT22;10615;42.702;23.314;2022-10-16T06:42:40;34.80;26.90
20911;DHT22;10615;42.702;23.314;2022-10-16T06:43:41;34.00;27.20
20911;DHT22;10615;42.702;23.314;2022-10-16T06:44:41;33.30;27.60
20911;DHT22;10615;42.702;23.314;2022-10-16T06:45:42;32.60;28.00
20911;DHT22;10615;42.702;23.314;2022-10-16T06:46:42;31.90;28.60
20911;DHT22;10615;42.702;23.314;2022-10-16T06:47:43;31.40;29.00
20911;DHT22;10615;42.702;23.314;2022-10-16T06:48:44;30.80;29.50